createdAt,value
2018-04-07T00:02:23.445Z,77.06
2018-04-07T00:04:51.113Z,77.70
2018-04-07T00:07:18.838Z,78.29
2018-04-07T00:09:46.602Z,78.50
2018-04-07T00:12:14.309Z,78.88
2018-04-07T00:14:41.980Z,79.16
2018-04-07T00:17:09.661Z,79.23
2018-04-07T00:19:37.406Z,79.25
2018-04-07T00:22:05.096Z,79.37
2018-04-07T00:24:32.723Z,79.21
2018-04-07T00:27:00.448Z,79.20
2018-04-07T00:29:29.292Z,78.78
2018-04-07T00:31:56.903Z,79.20
2018-04-07T00:34:24.589Z,79.55
2018-04-07T00:36:52.285Z,79.90
2018-04-07T00:39:20.365Z,79.33
2018-04-07T00:41:47.980Z,79.02
2018-04-07T00:44:15.583Z,79.09
2018-04-07T00:46:43.256Z,79.15
2018-04-07T00:49:10.958Z,79.09
2018-04-07T00:51:38.636Z,79.83
2018-04-07T00:54:06.333Z,79.87
2018-04-07T00:56:33.939Z,79.70
2018-04-07T00:59:01.548Z,79.34
2018-04-07T01:01:29.169Z,79.18
2018-04-07T01:03:56.814Z,79.37
2018-04-07T01:06:24.450Z,79.27
2018-04-07T01:08:52.101Z,79.10
2018-04-07T01:11:19.718Z,80.11
2018-04-07T01:13:47.349Z,80.41
2018-04-07T01:16:14.989Z,80.35
2018-04-07T01:18:42.617Z,79.91
2018-04-07T01:21:10.204Z,80.47
2018-04-07T01:23:37.934Z,80.99
2018-04-07T01:26:05.677Z,80.64
2018-04-07T01:28:33.324Z,80.45
2018-04-07T01:31:00.909Z,80.43
2018-04-07T01:33:28.522Z,80.31
2018-04-07T01:35:57.342Z,80.30
2018-04-07T01:38:25.531Z,80.87
2018-04-07T01:40:53.308Z,80.80
2018-04-07T01:43:21.049Z,80.80
2018-04-07T01:45:48.929Z,80.85
2018-04-07T01:48:16.795Z,81.14
2018-04-07T01:50:44.381Z,81.53
2018-04-07T01:53:12.107Z,81.30
2018-04-07T01:55:39.772Z,81.37
2018-04-07T01:58:07.428Z,80.75
2018-04-07T02:00:35.082Z,81.37
2018-04-07T02:03:03.326Z,81.79
2018-04-07T02:05:31.038Z,81.93
2018-04-07T02:07:58.646Z,82.06
2018-04-07T02:10:26.360Z,81.80
2018-04-07T02:12:53.995Z,82.22
2018-04-07T02:15:21.644Z,81.67
2018-04-07T02:17:49.532Z,81.09
2018-04-07T02:20:17.177Z,80.64
2018-04-07T02:22:45.483Z,80.68
2018-04-07T02:25:13.707Z,80.86
2018-04-07T02:27:41.383Z,81.24
2018-04-07T02:30:09.092Z,81.57
2018-04-07T02:32:36.881Z,81.43
2018-04-07T02:35:04.513Z,81.04
2018-04-07T02:37:32.180Z,81.47
2018-04-07T02:39:59.847Z,82.33
2018-04-07T02:42:27.685Z,82.85
2018-04-07T02:44:55.269Z,82.88
2018-04-07T02:47:22.949Z,82.76
2018-04-07T02:49:51.008Z,83.57
2018-04-07T02:52:18.653Z,83.75
2018-04-07T02:54:46.258Z,83.46
2018-04-07T02:57:13.885Z,82.96
2018-04-07T02:59:41.527Z,83.08
2018-04-07T03:02:09.712Z,83.56
2018-04-07T03:04:38.049Z,83.58
2018-04-07T03:07:05.633Z,83.80
2018-04-07T03:09:33.241Z,84.20
2018-04-07T03:12:00.905Z,83.93
2018-04-07T03:14:28.529Z,83.26
2018-04-07T03:16:56.139Z,83.27
2018-04-07T03:19:23.819Z,83.69
2018-04-07T03:21:51.441Z,83.93
2018-04-07T03:24:19.067Z,83.99
2018-04-07T03:26:46.787Z,83.43
2018-04-07T03:29:14.459Z,82.94
2018-04-07T03:31:42.081Z,82.45
2018-04-07T03:34:09.703Z,82.63
2018-04-07T03:36:37.356Z,83.23
2018-04-07T03:39:05.021Z,83.59
2018-04-07T03:41:32.686Z,83.91
2018-04-07T03:44:00.333Z,83.73
2018-04-07T03:46:27.957Z,84.18
2018-04-07T03:48:55.743Z,83.67
2018-04-07T03:51:23.381Z,83.26
2018-04-07T03:53:51.016Z,83.36
2018-04-07T03:56:18.638Z,83.05
2018-04-07T03:58:46.506Z,83.34
2018-04-07T04:01:14.096Z,83.94
2018-04-07T04:03:41.917Z,82.89
2018-04-07T04:06:09.507Z,83.02
2018-04-07T04:08:37.244Z,82.99
2018-04-07T04:11:05.014Z,82.71
2018-04-07T04:13:33.217Z,81.98
2018-04-07T04:16:00.840Z,82.27
2018-04-07T04:18:28.497Z,82.08
2018-04-07T04:20:56.067Z,82.31
2018-04-07T04:23:23.699Z,81.74
2018-04-07T04:25:51.348Z,82.46
2018-04-07T04:28:19.011Z,83.40
2018-04-07T04:30:46.659Z,83.97
2018-04-07T04:33:14.261Z,84.25
2018-04-07T04:35:41.941Z,84.03
2018-04-07T04:38:09.560Z,84.43
2018-04-07T04:40:37.216Z,84.56
2018-04-07T04:43:04.868Z,84.21
2018-04-07T04:45:33.366Z,84.14
2018-04-07T04:48:01.267Z,84.42
2018-04-07T04:50:29.033Z,84.23
2018-04-07T04:52:56.682Z,84.34
2018-04-07T04:55:24.363Z,84.81
2018-04-07T04:57:52.007Z,85.41
2018-04-07T05:00:19.674Z,85.16
2018-04-07T05:02:47.334Z,85.04
2018-04-07T05:05:15.191Z,85.76
2018-04-07T05:07:42.826Z,85.91
2018-04-07T05:10:10.456Z,85.42
2018-04-07T05:12:38.355Z,84.76
2018-04-07T05:15:06.634Z,84.16
2018-04-07T05:17:34.275Z,81.42
2018-04-07T05:20:02.113Z,72.43
2018-04-07T05:22:30.594Z,62.13
2018-04-07T05:24:58.224Z,60.13
2018-04-07T05:27:26.073Z,58.25
2018-04-07T05:29:53.695Z,55.39
2018-04-07T05:32:21.528Z,55.29
2018-04-07T05:34:49.276Z,58.22
2018-04-07T05:37:17.191Z,63.27
2018-04-07T05:39:45.150Z,66.84
2018-04-07T05:42:13.019Z,69.31
2018-04-07T05:44:41.666Z,70.50
2018-04-07T05:47:09.312Z,71.41
2018-04-07T05:49:37.242Z,71.47
2018-04-07T05:52:05.334Z,71.25
2018-04-07T05:54:33.060Z,70.83
2018-04-07T05:57:00.671Z,71.40
2018-04-07T05:59:32.766Z,72.02
2018-04-07T06:02:00.710Z,70.75
2018-04-07T06:04:28.364Z,70.67
2018-04-07T06:06:56.141Z,70.77
2018-04-07T06:09:23.773Z,70.54
2018-04-07T06:11:51.405Z,69.60
2018-04-07T06:14:19.107Z,70.13
2018-04-07T06:16:46.835Z,68.95
2018-04-07T06:19:14.724Z,68.30
2018-04-07T06:21:42.378Z,67.85
2018-04-07T06:24:10.249Z,66.18
2018-04-07T06:26:37.891Z,66.10
2018-04-07T06:29:05.597Z,65.43
2018-04-07T06:31:33.536Z,65.44
2018-04-07T06:34:01.612Z,65.76
2018-04-07T06:36:29.216Z,63.49
2018-04-07T06:38:56.972Z,63.68
2018-04-07T06:41:24.671Z,61.94
2018-04-07T06:43:52.580Z,61.04
2018-04-07T06:46:20.318Z,61.17
2018-04-07T06:48:48.285Z,61.55
2018-04-07T06:51:16.178Z,59.47
2018-04-07T06:53:43.929Z,59.57
2018-04-07T06:56:11.590Z,58.91
2018-04-07T06:58:39.626Z,59.02
2018-04-07T07:01:07.360Z,58.49
2018-04-07T07:03:34.967Z,57.37
2018-04-07T07:06:02.758Z,57.20
2018-04-07T07:08:30.721Z,53.70
2018-04-07T07:10:58.313Z,55.83
2018-04-07T07:13:26.150Z,56.28
2018-04-07T07:15:54.050Z,56.12
2018-04-07T07:18:22.119Z,53.94
2018-04-07T07:20:50.850Z,54.54
2018-04-07T07:23:18.645Z,54.43
2018-04-07T07:25:46.669Z,55.35
2018-04-07T07:28:14.359Z,54.23
2018-04-07T07:30:43.309Z,54.42
2018-04-07T07:33:11.949Z,51.90
2018-04-07T07:35:40.542Z,50.50
2018-04-07T07:38:08.302Z,49.53
2018-04-07T07:40:36.074Z,48.96
2018-04-07T07:43:03.947Z,48.88
2018-04-07T07:45:31.820Z,49.33
2018-04-07T07:48:00.490Z,45.64
2018-04-07T07:50:29.966Z,48.46
2018-04-07T07:52:57.685Z,48.84
2018-04-07T07:55:26.529Z,47.05
2018-04-07T07:57:54.596Z,45.01
2018-04-07T08:00:24.772Z,45.13
2018-04-07T08:02:52.656Z,45.87
2018-04-07T08:05:20.324Z,46.52
2018-04-07T08:07:48.722Z,46.38
2018-04-07T08:10:17.334Z,45.59
2018-04-07T08:12:45.823Z,44.14
2018-04-07T08:15:13.568Z,44.49
2018-04-07T08:17:41.645Z,43.52
2018-04-07T08:20:09.349Z,42.17
2018-04-07T08:22:36.994Z,41.18
2018-04-07T08:25:04.620Z,42.73
2018-04-07T08:27:32.386Z,42.37
2018-04-07T08:30:02.951Z,41.46
2018-04-07T08:32:30.561Z,40.67
2018-04-07T08:34:58.203Z,42.21
2018-04-07T08:37:25.854Z,42.01
2018-04-07T08:39:53.448Z,40.67
2018-04-07T08:42:21.068Z,40.14
2018-04-07T08:44:48.750Z,40.26
2018-04-07T08:47:16.576Z,41.56
2018-04-07T08:49:44.243Z,39.11
2018-04-07T08:52:11.887Z,38.12
2018-04-07T08:54:39.605Z,39.12
2018-04-07T08:57:07.228Z,36.98
2018-04-07T08:59:34.996Z,37.25
2018-04-07T09:02:02.643Z,35.49
2018-04-07T09:04:31.107Z,37.68
2018-04-07T09:06:59.344Z,37.26
2018-04-07T09:09:27.009Z,37.29
2018-04-07T09:11:55.526Z,35.49
2018-04-07T09:14:23.268Z,36.63
2018-04-07T09:16:50.860Z,35.79
2018-04-07T09:19:18.539Z,34.73
2018-04-07T09:21:48.335Z,36.36
2018-04-07T09:24:15.949Z,35.50
2018-04-07T09:26:43.678Z,34.79
2018-04-07T09:29:11.383Z,32.85
2018-04-07T09:31:39.016Z,31.83
2018-04-07T09:34:06.668Z,33.69
2018-04-07T09:36:34.681Z,34.62
2018-04-07T09:39:03.556Z,33.16
2018-04-07T09:41:31.344Z,32.65
2018-04-07T09:43:59.006Z,31.91
2018-04-07T09:46:26.719Z,29.87
2018-04-07T09:48:54.401Z,30.00
2018-04-07T09:51:22.076Z,30.59
2018-04-07T09:53:49.677Z,29.86
2018-04-07T09:56:17.319Z,29.90
2018-04-07T09:58:45.124Z,30.39
2018-04-07T10:01:12.989Z,30.18
2018-04-07T10:03:40.632Z,29.81
2018-04-07T10:06:08.288Z,29.35
2018-04-07T10:08:35.974Z,29.71
2018-04-07T10:11:03.652Z,31.04
2018-04-07T10:13:31.321Z,31.70
2018-04-07T10:15:58.917Z,30.79
2018-04-07T10:18:26.569Z,30.57
2018-04-07T10:20:54.237Z,30.99
2018-04-07T10:23:22.579Z,30.25
2018-04-07T10:25:50.227Z,29.79
2018-04-07T10:28:17.922Z,28.68
2018-04-07T10:30:45.756Z,28.92
2018-04-07T10:33:13.366Z,29.25
2018-04-07T10:35:41.083Z,29.22
2018-04-07T10:38:08.717Z,31.66
2018-04-07T10:40:36.362Z,28.84
2018-04-07T10:43:04.073Z,28.40
2018-04-07T10:45:31.843Z,27.81
2018-04-07T10:47:59.554Z,27.74
2018-04-07T10:50:27.218Z,29.11
2018-04-07T10:52:54.880Z,29.94
2018-04-07T10:55:23.518Z,30.19
2018-04-07T10:57:51.268Z,27.88
2018-04-07T11:00:19.050Z,29.45
2018-04-07T11:02:46.797Z,26.97
2018-04-07T11:05:14.461Z,27.02
2018-04-07T11:07:42.054Z,27.82
2018-04-07T11:10:09.694Z,27.53
2018-04-07T11:12:37.450Z,27.14
2018-04-07T11:15:05.489Z,24.87
2018-04-07T11:17:33.182Z,27.65
2018-04-07T11:20:00.833Z,27.24
2018-04-07T11:22:28.456Z,25.54
2018-04-07T11:24:56.121Z,25.88
2018-04-07T11:27:23.801Z,25.93
2018-04-07T11:29:51.491Z,25.71
2018-04-07T11:32:19.142Z,25.19
2018-04-07T11:34:46.801Z,24.12
2018-04-07T11:37:14.464Z,24.07
2018-04-07T11:39:42.164Z,24.12
2018-04-07T11:42:09.752Z,23.04
2018-04-07T11:44:37.425Z,22.84
2018-04-07T11:47:05.078Z,22.79
2018-04-07T11:49:33.294Z,23.57
2018-04-07T11:52:00.905Z,23.72
2018-04-07T11:54:28.560Z,23.65
2018-04-07T11:56:56.184Z,23.98
2018-04-07T11:59:23.878Z,24.39
2018-04-07T12:01:51.485Z,25.13
2018-04-07T12:04:19.169Z,23.69
2018-04-07T12:06:46.877Z,24.01
2018-04-07T12:09:14.606Z,24.75
2018-04-07T12:11:42.465Z,24.77
2018-04-07T12:14:10.333Z,23.28
2018-04-07T12:16:38.251Z,23.83
2018-04-07T12:19:10.489Z,23.75
2018-04-07T12:21:40.404Z,22.73
2018-04-07T12:24:08.257Z,23.52
2018-04-07T12:26:36.235Z,24.12
2018-04-07T12:29:03.862Z,24.31
2018-04-07T12:31:32.402Z,24.90
2018-04-07T12:34:00.122Z,22.62
2018-04-07T12:36:27.880Z,22.83
2018-04-07T12:38:55.518Z,24.63
2018-04-07T12:41:23.262Z,24.10
2018-04-07T12:43:51.790Z,22.78
2018-04-07T12:46:19.449Z,20.85
2018-04-07T12:48:47.072Z,23.01
2018-04-07T12:51:16.136Z,21.18
2018-04-07T12:53:44.686Z,23.01
2018-04-07T12:56:12.379Z,20.84
2018-04-07T12:58:40.041Z,21.70
2018-04-07T13:01:07.741Z,22.44
2018-04-07T13:03:35.466Z,22.24
2018-04-07T13:06:03.130Z,21.11
2018-04-07T13:08:30.846Z,22.85
2018-04-07T13:10:58.865Z,22.88
2018-04-07T13:13:26.517Z,21.60
2018-04-07T13:15:54.394Z,22.08
2018-04-07T13:18:22.240Z,22.77
2018-04-07T13:20:50.914Z,23.97
2018-04-07T13:23:18.915Z,24.68
2018-04-07T13:25:46.641Z,24.34
2018-04-07T13:28:14.317Z,24.20
2018-04-07T13:30:41.997Z,23.15
2018-04-07T13:33:09.773Z,23.25
2018-04-07T13:35:37.415Z,24.25
2018-04-07T13:38:05.294Z,23.93
2018-04-07T13:40:33.194Z,22.32
2018-04-07T13:43:00.879Z,24.14
2018-04-07T13:45:28.634Z,23.11
2018-04-07T13:47:56.446Z,23.71
2018-04-07T13:50:24.129Z,23.04
2018-04-07T13:52:52.399Z,23.69
2018-04-07T13:55:20.032Z,23.90
2018-04-07T13:57:48.910Z,23.11
2018-04-07T14:00:16.809Z,23.51
2018-04-07T14:02:44.654Z,23.83
2018-04-07T14:05:12.544Z,23.06
2018-04-07T14:07:40.170Z,24.80
2018-04-07T14:10:07.820Z,23.37
2018-04-07T14:12:35.504Z,23.91
2018-04-07T14:15:03.113Z,22.92
2018-04-07T14:17:30.769Z,23.65
2018-04-07T14:19:58.522Z,24.04
2018-04-07T14:22:27.009Z,23.55
2018-04-07T14:24:54.884Z,25.07
2018-04-07T14:27:22.568Z,23.95
2018-04-07T14:29:50.608Z,23.37
2018-04-07T14:32:18.383Z,24.29
2018-04-07T14:34:46.008Z,23.47
2018-04-07T14:37:13.915Z,24.11
2018-04-07T14:39:41.594Z,24.77
2018-04-07T14:42:09.412Z,25.87
2018-04-07T14:44:37.097Z,25.86
2018-04-07T14:47:04.709Z,27.15
2018-04-07T14:49:32.633Z,27.67
2018-04-07T14:52:00.520Z,27.38
2018-04-07T14:54:28.720Z,26.85
2018-04-07T14:56:56.423Z,26.19
2018-04-07T14:59:24.073Z,27.27
2018-04-07T15:01:51.734Z,26.57
2018-04-07T15:04:20.310Z,26.72
2018-04-07T15:06:47.960Z,25.80
2018-04-07T15:09:15.596Z,27.29
2018-04-07T15:11:43.330Z,27.66
2018-04-07T15:14:11.198Z,26.75
2018-04-07T15:16:38.803Z,27.95
2018-04-07T15:19:06.519Z,26.77
2018-04-07T15:21:34.532Z,27.24
2018-04-07T15:24:02.203Z,25.96
2018-04-07T15:26:30.123Z,27.00
2018-04-07T15:28:59.373Z,27.63
2018-04-07T15:31:27.086Z,28.20
2018-04-07T15:33:54.937Z,28.21
2018-04-07T15:36:22.586Z,29.44
2018-04-07T15:38:51.688Z,29.80
2018-04-07T15:41:19.431Z,27.08
2018-04-07T15:43:47.342Z,28.34
2018-04-07T15:46:14.982Z,28.79
2018-04-07T15:48:42.729Z,30.12
2018-04-07T15:51:11.349Z,29.20
2018-04-07T15:53:39.124Z,29.76
2018-04-07T15:56:06.792Z,30.06
2018-04-07T15:58:34.640Z,29.24
2018-04-07T16:01:02.926Z,30.31
2018-04-07T16:03:31.815Z,30.39
2018-04-07T16:05:59.691Z,29.94
2018-04-07T16:08:27.541Z,29.69
2018-04-07T16:10:55.194Z,31.19
2018-04-07T16:13:22.984Z,30.45
2018-04-07T16:15:51.300Z,30.51
2018-04-07T16:18:19.645Z,30.99
2018-04-07T16:20:48.232Z,32.71
2018-04-07T16:23:16.252Z,32.20
2018-04-07T16:25:44.419Z,32.22
2018-04-07T16:28:12.989Z,31.10
2018-04-07T16:30:40.910Z,31.91
2018-04-07T16:33:08.950Z,32.19
2018-04-07T16:35:37.062Z,33.22
2018-04-07T16:38:05.222Z,31.88
2018-04-07T16:40:33.001Z,32.08
2018-04-07T16:43:01.477Z,32.89
2018-04-07T16:45:29.910Z,33.99
2018-04-07T16:47:57.627Z,33.68
2018-04-07T16:50:26.038Z,34.59
2018-04-07T16:52:54.036Z,35.06
2018-04-07T16:55:21.723Z,35.34
2018-04-07T16:57:49.464Z,35.12
2018-04-07T17:00:17.185Z,34.95
2018-04-07T17:02:45.155Z,34.86
2018-04-07T17:05:12.837Z,35.36
2018-04-07T17:07:40.532Z,36.07
2018-04-07T17:10:08.476Z,35.32
2018-04-07T17:12:37.322Z,37.05
2018-04-07T17:15:05.320Z,35.96
2018-04-07T17:17:32.996Z,36.25
2018-04-07T17:20:00.700Z,36.60
2018-04-07T17:22:28.344Z,36.70
2018-04-07T17:24:56.142Z,36.33
2018-04-07T17:27:23.837Z,36.98
2018-04-07T17:29:51.486Z,40.60
2018-04-07T17:32:19.437Z,39.51
2018-04-07T17:34:47.511Z,39.11
2018-04-07T17:37:15.647Z,39.58
2018-04-07T17:39:43.859Z,40.62
2018-04-07T17:42:12.136Z,40.54
2018-04-07T17:44:40.129Z,39.66
2018-04-07T17:47:09.119Z,41.37
2018-04-07T17:49:43.733Z,40.13
2018-04-07T17:52:05.855Z,42.69
2018-04-07T17:54:33.521Z,41.81
2018-04-07T17:57:01.410Z,42.35
2018-04-07T17:59:29.235Z,43.94
2018-04-07T18:01:56.964Z,46.37
2018-04-07T18:04:24.793Z,48.33
2018-04-07T18:06:52.862Z,47.31
2018-04-07T18:09:22.361Z,48.12
2018-04-07T18:11:50.022Z,48.97
2018-04-07T18:14:17.794Z,49.03
2018-04-07T18:16:45.464Z,50.11
2018-04-07T18:19:13.149Z,50.90
2018-04-07T18:21:41.733Z,50.63
2018-04-07T18:24:10.995Z,52.57
2018-04-07T18:26:39.067Z,52.52
2018-04-07T18:29:07.147Z,52.19
2018-04-07T18:31:36.333Z,51.21
2018-04-07T18:34:04.083Z,51.90
2018-04-07T18:36:31.960Z,50.73
2018-04-07T18:39:00.778Z,52.52
2018-04-07T18:41:28.533Z,54.75
2018-04-07T18:43:56.171Z,55.04
2018-04-07T18:46:24.046Z,53.89
2018-04-07T18:48:51.808Z,53.42
2018-04-07T18:51:19.830Z,52.59
2018-04-07T18:53:48.288Z,53.21
2018-04-07T18:56:16.157Z,53.83
2018-04-07T18:58:43.945Z,55.07
2018-04-07T19:01:12.754Z,55.30
2018-04-07T19:03:40.442Z,55.47
2018-04-07T19:06:09.246Z,55.37
2018-04-07T19:08:37.091Z,54.55
2018-04-07T19:11:05.083Z,55.76
2018-04-07T19:13:33.125Z,56.24
2018-04-07T19:16:01.069Z,56.91
2018-04-07T19:18:29.208Z,57.53
2018-04-07T19:20:57.367Z,57.48
2018-04-07T19:23:25.343Z,58.96
2018-04-07T19:25:53.234Z,56.90
2018-04-07T19:28:21.278Z,56.09
2018-04-07T19:30:49.395Z,57.71
2018-04-07T19:33:17.208Z,57.48
2018-04-07T19:35:45.560Z,58.00
2018-04-07T19:38:13.387Z,56.60
2018-04-07T19:40:41.194Z,57.34
2018-04-07T19:43:08.949Z,58.94
2018-04-07T19:45:36.636Z,58.68
2018-04-07T19:48:04.288Z,57.80
2018-04-07T19:50:32.084Z,57.62
2018-04-07T19:52:59.751Z,58.50
2018-04-07T19:55:27.440Z,59.58
2018-04-07T19:57:55.092Z,60.23
2018-04-07T20:00:24.018Z,60.45
2018-04-07T20:02:51.823Z,61.81
2018-04-07T20:05:19.475Z,61.82
2018-04-07T20:07:47.170Z,60.44
2018-04-07T20:10:14.847Z,60.35
2018-04-07T20:12:42.554Z,61.31
2018-04-07T20:15:10.259Z,62.00
2018-04-07T20:17:37.955Z,63.46
2018-04-07T20:20:05.702Z,64.21
2018-04-07T20:22:33.446Z,64.48
2018-04-07T20:25:01.052Z,63.15
2018-04-07T20:27:29.325Z,64.08
2018-04-07T20:29:56.945Z,63.32
2018-04-07T20:32:24.586Z,64.08
2018-04-07T20:34:52.345Z,64.20
2018-04-07T20:37:20.066Z,64.37
2018-04-07T20:39:47.792Z,65.26
2018-04-07T20:42:27.119Z,65.33
2018-04-07T20:44:54.795Z,64.02
2018-04-07T20:47:24.248Z,63.46
2018-04-07T20:49:51.977Z,62.84
2018-04-07T20:52:20.389Z,62.41
2018-04-07T20:54:48.114Z,62.62
2018-04-07T20:57:15.715Z,63.48
2018-04-07T20:59:43.374Z,65.53
2018-04-07T21:02:11.082Z,64.73
2018-04-07T21:04:38.742Z,64.30
2018-04-07T21:07:06.528Z,63.87
2018-04-07T21:09:34.177Z,64.22
2018-04-07T21:12:01.837Z,65.55
2018-04-07T21:14:29.455Z,64.87
2018-04-07T21:16:57.221Z,65.49
2018-04-07T21:19:24.887Z,65.92
2018-04-07T21:21:52.587Z,65.84
2018-04-07T21:24:21.204Z,66.08
2018-04-07T21:26:49.206Z,66.81
2018-04-07T21:29:17.316Z,67.22
2018-04-07T21:31:44.934Z,67.51
2018-04-07T21:34:12.523Z,68.20
2018-04-07T21:36:40.602Z,67.16
2018-04-07T21:39:08.411Z,66.95
2018-04-07T21:41:36.010Z,68.03
2018-04-07T21:44:03.913Z,67.35
2018-04-07T21:46:31.573Z,66.98
2018-04-07T21:48:59.272Z,66.01
2018-04-07T21:51:26.970Z,66.33
2018-04-07T21:53:55.124Z,67.38
2018-04-07T21:56:22.773Z,67.78
2018-04-07T21:58:50.430Z,68.69
2018-04-07T22:01:18.134Z,68.76
2018-04-07T22:03:46.291Z,68.67
2018-04-07T22:06:13.954Z,68.43
2018-04-07T22:08:41.697Z,68.88
2018-04-07T22:11:09.422Z,69.48
2018-04-07T22:13:37.054Z,69.99
2018-04-07T22:16:04.647Z,69.84
2018-04-07T22:18:32.323Z,70.35
2018-04-07T22:20:59.929Z,70.37
2018-04-07T22:23:27.545Z,69.85
2018-04-07T22:25:55.439Z,69.61
2018-04-07T22:28:23.075Z,68.99
2018-04-07T22:30:51.740Z,69.16
2018-04-07T22:33:19.426Z,69.80
2018-04-07T22:35:47.071Z,70.43
2018-04-07T22:38:14.758Z,70.95
2018-04-07T22:40:42.416Z,70.52
2018-04-07T22:43:10.203Z,70.48
2018-04-07T22:45:37.799Z,71.02
2018-04-07T22:48:05.449Z,70.23
2018-04-07T22:50:33.105Z,71.03
2018-04-07T22:53:00.754Z,71.41
2018-04-07T22:55:28.425Z,70.67
2018-04-07T22:57:56.138Z,70.29
2018-04-07T23:00:24.707Z,70.70
2018-04-07T23:02:52.447Z,70.31
2018-04-07T23:05:20.045Z,69.85
2018-04-07T23:07:47.731Z,71.08
2018-04-07T23:10:15.374Z,71.55
2018-04-07T23:12:43.037Z,71.16
2018-04-07T23:15:10.662Z,70.17
2018-04-07T23:17:38.325Z,70.41
2018-04-07T23:20:05.945Z,70.28
2018-04-07T23:22:33.597Z,71.70
2018-04-07T23:25:01.540Z,71.06
2018-04-07T23:27:29.892Z,70.61
2018-04-07T23:29:57.638Z,70.66
2018-04-07T23:32:25.239Z,71.34
2018-04-07T23:34:52.885Z,71.18
2018-04-07T23:37:20.545Z,72.42
2018-04-07T23:39:48.237Z,72.50
2018-04-07T23:42:15.887Z,71.47
2018-04-07T23:44:43.538Z,71.09
2018-04-07T23:47:11.168Z,70.40
2018-04-07T23:49:38.750Z,70.79
2018-04-07T23:52:06.384Z,70.11
2018-04-07T23:54:34.011Z,69.83
2018-04-07T23:57:01.663Z,70.52
2018-04-07T23:59:29.346Z,72.23
